Toledo, Brazil
Current Conditions -  °F | °C
As of 11:00 AM on Thursday 30 Oct 2014 (Local Time) from SBSJ Reporting Station
Clear Clear  
Wind Chill: 90°   Ceiling: Unl
Heat Index: 90°   Visibility: 6mi
Dew Point: 55°   Wind: 8mph
Humidity: 31%   Direction: 20°NNE
Pressure: 29.91"   Gusts: NA
Location:  22.74°S, 46.37°W
Report Text: SBSJ 301300Z 02007KT CAVOK 32/13 Q1013
Loading
Personal Weather Stations






























Interactive Weather Map
Tropical Storm Tracking
New forecast layout! Learn more

10-Day Weather Forecast

Advertisements
Track Severe Weather on mobile